createdAt,value
2023-10-10T00:01:22.825Z,93.20
2023-10-10T00:03:50.721Z,94.80
2023-10-10T00:11:20.328Z,99.90
2023-10-10T00:13:53.706Z,96.20
2023-10-10T00:16:26.553Z,94.90
2023-10-10T00:18:57.562Z,94.40
2023-10-10T00:21:24.887Z,94.40
2023-10-10T00:23:54.778Z,94.30
2023-10-10T00:29:07.389Z,95.80
2023-10-10T00:31:34.444Z,94.60
2023-10-10T00:34:01.190Z,94.80
2023-10-10T00:36:37.512Z,95.00
2023-10-10T00:39:14.076Z,95.30
2023-10-10T00:41:50.479Z,95.20
2023-10-10T00:44:18.678Z,95.20
2023-10-10T00:46:48.886Z,95.30
2023-10-10T00:49:18.083Z,95.40
2023-10-10T00:51:48.643Z,95.50
2023-10-10T00:54:23.098Z,95.40
2023-10-10T01:02:15.816Z,98.20
2023-10-10T01:04:55.159Z,96.20
2023-10-10T01:49:15.003Z,93.40
2023-10-10T01:51:44.579Z,92.10
2023-10-10T01:54:20.246Z,94.70
2023-10-10T02:01:46.304Z,97.40
2023-10-10T02:26:58.605Z,84.00
2023-10-10T02:29:25.467Z,87.10
2023-10-10T02:32:14.387Z,88.40
2023-10-10T02:34:57.324Z,88.60
2023-10-10T02:37:25.175Z,79.50
2023-10-10T02:40:08.887Z,80.60
2023-10-10T02:42:35.572Z,81.10
2023-10-10T02:45:03.441Z,79.80
2023-10-10T03:40:10.491Z,92.50
2023-10-10T03:42:55.701Z,76.70
2023-10-10T05:25:38.679Z,76.80
2023-10-10T05:28:05.637Z,77.50
2023-10-10T05:30:43.976Z,80.70
2023-10-10T05:33:11.961Z,79.40
2023-10-10T05:35:41.849Z,77.40
2023-10-10T05:38:09.908Z,77.10
2023-10-10T05:40:39.568Z,76.90
2023-10-10T05:43:17.137Z,76.70
2023-10-10T05:45:45.242Z,76.60
2023-10-10T05:48:15.768Z,76.30
2023-10-10T05:50:42.710Z,76.20
2023-10-10T05:53:09.484Z,76.10
2023-10-10T05:55:39.670Z,95.10
2023-10-10T05:58:07.014Z,80.90
2023-10-10T06:00:42.764Z,93.00
2023-10-10T06:03:09.675Z,90.70
2023-10-10T06:05:36.965Z,87.00
2023-10-10T06:08:07.281Z,84.80
2023-10-10T06:10:34.429Z,85.60
2023-10-10T06:13:08.345Z,85.70
2023-10-10T06:15:36.525Z,85.50
2023-10-10T06:18:19.462Z,85.80
2023-10-10T06:21:06.647Z,86.50
2023-10-10T06:23:36.519Z,85.80
2023-10-10T06:26:05.366Z,86.80
2023-10-10T06:28:46.115Z,87.30
2023-10-10T06:33:51.309Z,72.00
2023-10-10T06:36:22.843Z,73.90
2023-10-10T06:39:00.699Z,72.10
2023-10-10T06:41:29.118Z,71.60
2023-10-10T06:43:58.600Z,70.50
2023-10-10T06:46:25.439Z,70.10
2023-10-10T06:48:52.399Z,70.60
2023-10-10T06:51:23.348Z,71.00
2023-10-10T06:53:55.766Z,71.50
2023-10-10T06:56:43.122Z,72.00
2023-10-10T06:59:17.837Z,75.40
2023-10-10T07:01:46.697Z,72.70
2023-10-10T07:04:17.691Z,80.10
2023-10-10T07:06:52.723Z,73.40
2023-10-10T07:09:29.026Z,73.80
2023-10-10T07:12:20.189Z,74.10
2023-10-10T07:14:48.088Z,74.10
2023-10-10T07:17:15.697Z,74.00
2023-10-10T07:20:16.202Z,73.80
2023-10-10T07:22:44.485Z,73.50
2023-10-10T07:25:19.384Z,73.20
2023-10-10T07:27:46.589Z,73.10
2023-10-10T07:30:13.360Z,73.00
2023-10-10T07:32:43.950Z,73.40
2023-10-10T07:35:16.026Z,72.70
2023-10-10T07:37:44.812Z,72.80
2023-10-10T07:40:15.867Z,72.70
2023-10-10T07:42:42.544Z,72.70
2023-10-10T07:45:16.439Z,72.70
2023-10-10T07:47:59.147Z,72.60
2023-10-10T07:50:36.282Z,72.60
2023-10-10T07:53:05.217Z,72.80
2023-10-10T07:55:52.291Z,72.80
2023-10-10T07:58:21.212Z,73.40
2023-10-10T08:00:47.995Z,72.80
2023-10-10T08:03:20.599Z,72.70
2023-10-10T08:05:52.197Z,72.70
2023-10-10T08:08:19.140Z,73.00
2023-10-10T08:10:47.447Z,72.90
2023-10-10T08:13:15.388Z,73.10
2023-10-10T08:15:51.616Z,73.10
2023-10-10T08:18:37.897Z,73.30
2023-10-10T08:21:04.935Z,73.80
2023-10-10T08:23:32.133Z,73.20
2023-10-10T08:25:59.128Z,73.40
2023-10-10T08:28:25.928Z,73.70
2023-10-10T08:30:54.018Z,73.70
2023-10-10T08:33:21.137Z,73.80
2023-10-10T08:35:50.976Z,73.60
2023-10-10T08:38:21.952Z,73.90
2023-10-10T08:41:02.437Z,74.00
2023-10-10T08:43:30.394Z,74.10
2023-10-10T08:45:58.226Z,74.00
2023-10-10T08:48:27.924Z,74.00
2023-10-10T08:51:04.827Z,74.00
2023-10-10T08:53:39.665Z,74.20
2023-10-10T08:56:08.102Z,74.20
2023-10-10T08:58:37.162Z,74.30
2023-10-10T09:01:09.594Z,74.30
2023-10-10T09:03:37.188Z,74.10
2023-10-10T09:06:20.257Z,73.90
2023-10-10T09:08:51.413Z,73.80
2023-10-10T09:11:21.417Z,73.90
2023-10-10T09:13:53.040Z,74.00
2023-10-10T09:16:42.660Z,74.10
2023-10-10T09:19:09.748Z,74.20
2023-10-10T09:21:52.356Z,74.30
2023-10-10T09:24:30.215Z,74.50
2023-10-10T09:26:57.958Z,74.10
2023-10-10T09:29:35.256Z,73.60
2023-10-10T09:32:02.902Z,73.80
2023-10-10T09:34:42.131Z,74.00
2023-10-10T09:37:12.217Z,74.10
2023-10-10T09:39:41.242Z,74.20
2023-10-10T09:42:10.219Z,74.10
2023-10-10T09:45:02.061Z,74.00
2023-10-10T09:47:44.677Z,74.40
2023-10-10T09:50:24.053Z,74.10
2023-10-10T09:52:54.766Z,74.60
2023-10-10T09:55:26.014Z,74.10
2023-10-10T09:58:03.301Z,74.70
2023-10-10T10:00:38.540Z,81.90
2023-10-10T10:03:29.511Z,80.90
2023-10-10T10:06:07.559Z,74.70
2023-10-10T10:08:45.900Z,81.20
2023-10-10T10:11:29.545Z,74.40
2023-10-10T10:14:17.048Z,74.80
2023-10-10T10:16:52.389Z,74.40
2023-10-10T10:19:21.807Z,73.90
2023-10-10T10:21:58.199Z,73.60
2023-10-10T10:24:32.256Z,73.50
2023-10-10T10:27:40.595Z,73.20
2023-10-10T10:30:20.675Z,73.60
2023-10-10T10:32:49.118Z,73.30
2023-10-10T10:35:21.744Z,73.50
2023-10-10T10:37:56.899Z,73.60
2023-10-10T10:40:43.763Z,73.50
2023-10-10T10:43:16.422Z,87.80
2023-10-10T10:45:52.457Z,79.10
2023-10-10T10:48:35.432Z,74.00
2023-10-10T10:51:27.994Z,73.90
2023-10-10T10:54:03.419Z,73.80
2023-10-10T10:56:31.671Z,73.60
2023-10-10T10:59:15.075Z,74.60
2023-10-10T11:01:54.051Z,73.40
2023-10-10T11:04:34.581Z,72.90
2023-10-10T11:07:08.665Z,72.60
2023-10-10T11:09:38.381Z,72.10
2023-10-10T11:12:09.901Z,72.30
2023-10-10T11:14:47.861Z,72.40
2023-10-10T11:30:09.548Z,74.90
2023-10-10T11:32:47.674Z,71.40
2023-10-10T11:35:24.569Z,71.70
2023-10-10T11:38:00.663Z,69.70
2023-10-10T11:55:25.304Z,70.00
2023-10-10T11:57:58.762Z,67.00
2023-10-10T12:30:57.953Z,67.70
2023-10-10T12:33:25.763Z,66.30
2023-10-10T16:38:36.844Z,65.70
2023-10-10T16:41:09.712Z,59.80
2023-10-10T16:43:53.992Z,60.30
2023-10-10T16:46:26.705Z,59.80
2023-10-10T16:48:53.778Z,60.70
2023-10-10T16:51:22.013Z,60.30
2023-10-10T16:53:54.129Z,60.80
2023-10-10T16:56:24.313Z,60.20
2023-10-10T16:58:51.671Z,60.90
2023-10-10T17:01:21.947Z,61.40
2023-10-10T17:03:51.323Z,60.80
2023-10-10T17:06:23.513Z,60.30
2023-10-10T17:08:54.216Z,59.70
2023-10-10T17:11:24.433Z,60.50
2023-10-10T17:13:54.008Z,60.50
2023-10-10T17:16:29.444Z,60.30
2023-10-10T17:19:06.573Z,61.00
2023-10-10T17:21:43.783Z,60.20
2023-10-10T17:24:10.764Z,60.50
2023-10-10T17:26:38.121Z,60.10
2023-10-10T17:29:05.288Z,60.20
2023-10-10T17:41:25.067Z,60.30
2023-10-10T17:43:52.013Z,60.20
2023-10-10T17:46:23.038Z,60.80
2023-10-10T17:48:56.628Z,61.00
2023-10-10T17:51:25.004Z,60.10
2023-10-10T17:53:53.158Z,60.60
2023-10-10T17:56:24.358Z,60.10
2023-10-10T17:58:51.852Z,60.60
2023-10-10T18:01:22.490Z,60.70
2023-10-10T18:03:57.396Z,60.60
2023-10-10T18:06:25.554Z,60.20
2023-10-10T18:08:56.935Z,60.00
2023-10-10T18:11:27.269Z,59.10
2023-10-10T18:13:54.482Z,59.50
2023-10-10T18:16:24.264Z,59.70
2023-10-10T18:18:53.554Z,59.20
2023-10-10T18:21:21.391Z,58.10
2023-10-10T18:23:48.530Z,57.60
2023-10-10T18:26:17.465Z,58.30
2023-10-10T18:28:44.903Z,59.10
2023-10-10T18:31:15.411Z,59.10
2023-10-10T18:33:43.456Z,58.30
2023-10-10T18:36:11.524Z,58.10
2023-10-10T18:38:41.166Z,57.80
2023-10-10T18:41:09.093Z,57.40
2023-10-10T18:43:36.159Z,58.30
2023-10-10T18:46:06.270Z,59.30
2023-10-10T18:48:38.230Z,57.90
2023-10-10T18:51:10.857Z,58.00
2023-10-10T18:53:37.689Z,57.60
2023-10-10T18:56:06.738Z,57.00
2023-10-10T18:58:33.619Z,56.30
2023-10-10T19:01:02.309Z,57.00
2023-10-10T19:03:29.346Z,56.00
2023-10-10T19:05:57.340Z,57.10
2023-10-10T19:08:24.151Z,57.20
2023-10-10T19:13:19.536Z,56.80
2023-10-10T19:18:19.968Z,58.70
2023-10-10T19:20:47.689Z,55.50
2023-10-10T19:23:15.896Z,55.00
2023-10-10T19:25:48.862Z,55.40
2023-10-10T19:28:16.876Z,58.70
2023-10-10T19:30:43.882Z,55.70
2023-10-10T19:33:12.281Z,55.60
2023-10-10T19:35:45.299Z,55.30
2023-10-10T19:38:12.506Z,59.00
2023-10-10T19:40:44.155Z,55.90
2023-10-10T19:43:14.033Z,55.70
2023-10-10T19:45:41.335Z,55.30
2023-10-10T19:48:08.674Z,55.50
2023-10-10T19:50:43.911Z,54.80
2023-10-10T19:53:12.308Z,54.90
2023-10-10T19:55:45.784Z,54.80
2023-10-10T19:58:13.737Z,54.30
2023-10-10T20:00:44.158Z,54.20
2023-10-10T20:05:42.866Z,53.70
2023-10-10T20:08:14.340Z,52.80
2023-10-10T20:15:43.525Z,52.30
2023-10-10T20:50:42.525Z,52.50
2023-10-10T20:53:09.925Z,52.00
2023-10-10T20:55:37.145Z,52.40
2023-10-10T20:58:05.074Z,52.80
2023-10-10T21:00:31.955Z,53.60
2023-10-10T21:03:07.212Z,53.00
2023-10-10T21:05:35.621Z,53.10
2023-10-10T21:08:05.003Z,53.50
2023-10-10T21:10:31.815Z,53.20
2023-10-10T21:12:59.053Z,53.10
2023-10-10T21:15:26.060Z,52.80
2023-10-10T21:17:54.706Z,52.80
2023-10-10T21:20:28.576Z,53.70
2023-10-10T21:22:58.530Z,53.60
2023-10-10T21:25:26.157Z,53.60
2023-10-10T21:27:56.396Z,53.80
2023-10-10T21:30:25.285Z,54.00
2023-10-10T21:32:52.391Z,54.30
2023-10-10T21:35:23.115Z,54.50
2023-10-10T21:37:50.160Z,54.60
2023-10-10T21:40:21.412Z,54.90
2023-10-10T21:42:50.063Z,55.20
2023-10-10T21:45:18.154Z,55.20
2023-10-10T21:47:52.163Z,55.40
2023-10-10T21:50:19.979Z,55.70
2023-10-10T21:52:48.535Z,56.30
2023-10-10T21:55:18.005Z,57.20
2023-10-10T21:57:56.661Z,57.50
2023-10-10T22:00:31.181Z,57.90
2023-10-10T22:03:01.967Z,58.30
2023-10-10T22:05:31.600Z,58.90
2023-10-10T22:07:59.088Z,59.40
2023-10-10T22:10:26.027Z,59.40
2023-10-10T22:12:59.066Z,60.00
2023-10-10T22:15:25.886Z,60.60
2023-10-10T22:17:57.288Z,61.00
2023-10-10T22:20:25.823Z,61.60
2023-10-10T22:22:54.852Z,62.00
2023-10-10T22:25:24.587Z,62.30
2023-10-10T22:27:53.100Z,62.80
2023-10-10T22:30:25.857Z,63.20
2023-10-10T22:32:54.637Z,63.70
2023-10-10T22:35:22.836Z,64.00
2023-10-10T22:37:51.641Z,64.30
2023-10-10T22:40:18.734Z,64.60
2023-10-10T22:42:45.571Z,64.80
2023-10-10T22:45:19.099Z,65.20
2023-10-10T22:47:55.069Z,65.30
2023-10-10T22:50:22.503Z,65.60
2023-10-10T22:52:53.766Z,66.30
2023-10-10T22:55:21.839Z,65.90
2023-10-10T22:57:51.891Z,66.20
2023-10-10T23:00:30.086Z,66.30
2023-10-10T23:02:59.564Z,66.40
2023-10-10T23:05:28.571Z,66.40
2023-10-10T23:07:56.536Z,66.50
2023-10-10T23:10:23.490Z,66.50
2023-10-10T23:12:51.484Z,66.50
2023-10-10T23:15:27.350Z,66.60
2023-10-10T23:17:59.651Z,66.50
2023-10-10T23:30:20.190Z,66.60
2023-10-10T23:32:47.584Z,67.00
2023-10-10T23:35:14.624Z,67.10
2023-10-10T23:37:46.047Z,67.10
2023-10-10T23:40:16.923Z,67.30
2023-10-10T23:42:45.103Z,67.30
2023-10-10T23:45:23.399Z,67.30
2023-10-10T23:47:56.225Z,67.40
2023-10-10T23:50:24.827Z,67.60
2023-10-10T23:52:53.173Z,67.60
2023-10-10T23:55:21.315Z,67.70
2023-10-10T23:57:49.520Z,67.70
